sensor_id;sensor_type;location;lat;lon;timestamp;temperature;humidity
49855;DHT22;35752;52.164;21.244;2022-08-07T00:02:06;14.50;99.90
49855;DHT22;35752;52.164;21.244;2022-08-07T00:04:31;14.50;99.90
49855;DHT22;35752;52.164;21.244;2022-08-07T00:06:57;14.40;99.90
49855;DHT22;35752;52.164;21.244;2022-08-07T00:09:23;14.40;99.90
49855;DHT22;35752;52.164;21.244;2022-08-07T00:11:49;14.40;99.90
49855;DHT22;35752;52.164;21.244;2022-08-07T00:14:15;14.40;99.90
49855;DHT22;35752;52.164;21.244;2022-08-07T00:16:40;14.40;99.90
49855;DHT22;35752;52.164;21.244;2022-08-07T00:19:06;14.30;99.90
49855;DHT22;35752;52.164;21.244;2022-08-07T00:21:32;14.20;99.90
49855;DHT22;35752;52.164;21.244;2022-08-07T00:23:57;14.20;99.90
49855;DHT22;35752;52.164;21.244;2022-08-07T00:26:23;14.20;99.90
49855;DHT22;35752;52.164;21.244;2022-08-07T00:28:49;14.10;99.90
49855;DHT22;35752;52.164;21.244;2022-08-07T00:31:14;14.10;99.90
49855;DHT22;35752;52.164;21.244;2022-08-07T00:33:40;14.10;99.90
49855;DHT22;35752;52.164;21.244;2022-08-07T00:36:07;14.10;99.90
49855;DHT22;35752;52.164;21.244;2022-08-07T00:38:33;14.10;99.90
49855;DHT22;35752;52.164;21.244;2022-08-07T00:41:02;14.00;99.90
49855;DHT22;35752;52.164;21.244;2022-08-07T00:43:27;14.00;99.90
49855;DHT22;35752;52.164;21.244;2022-08-07T00:45:53;13.90;99.90
49855;DHT22;35752;52.164;21.244;2022-08-07T00:48:19;13.90;99.90
49855;DHT22;35752;52.164;21.244;2022-08-07T00:50:45;13.80;99.90
49855;DHT22;35752;52.164;21.244;2022-08-07T00:53:10;13.80;99.90
49855;DHT22;35752;52.164;21.244;2022-08-07T00:55:36;13.80;99.90
49855;DHT22;35752;52.164;21.244;2022-08-07T00:58:02;13.70;99.90
49855;DHT22;35752;52.164;21.244;2022-08-07T01:00:28;13.60;99.90
49855;DHT22;35752;52.164;21.244;2022-08-07T01:02:54;13.60;99.90
49855;DHT22;35752;52.164;21.244;2022-08-07T01:05:20;13.50;99.90
49855;DHT22;35752;52.164;21.244;2022-08-07T01:07:47;13.50;99.90
49855;DHT22;35752;52.164;21.244;2022-08-07T01:10:13;13.50;99.90
49855;DHT22;35752;52.164;21.244;2022-08-07T01:12:40;13.40;99.90
49855;DHT22;35752;52.164;21.244;2022-08-07T01:15:07;13.30;99.90
49855;DHT22;35752;52.164;21.244;2022-08-07T01:17:34;13.30;99.90
49855;DHT22;35752;52.164;21.244;2022-08-07T01:20:07;13.20;99.90
49855;DHT22;35752;52.164;21.244;2022-08-07T01:22:33;13.20;99.90
49855;DHT22;35752;52.164;21.244;2022-08-07T01:25:00;13.20;99.90
49855;DHT22;35752;52.164;21.244;2022-08-07T01:27:26;13.20;99.90
49855;DHT22;35752;52.164;21.244;2022-08-07T01:29:52;13.10;99.90
49855;DHT22;35752;52.164;21.244;2022-08-07T01:32:18;13.10;99.90
49855;DHT22;35752;52.164;21.244;2022-08-07T01:34:44;13.10;99.90
49855;DHT22;35752;52.164;21.244;2022-08-07T01:37:10;13.00;99.90
49855;DHT22;35752;52.164;21.244;2022-08-07T01:39:38;13.00;99.90
49855;DHT22;35752;52.164;21.244;2022-08-07T01:42:04;12.90;99.90
49855;DHT22;35752;52.164;21.244;2022-08-07T01:44:30;12.90;99.90
49855;DHT22;35752;52.164;21.244;2022-08-07T01:46:56;12.80;99.90
49855;DHT22;35752;52.164;21.244;2022-08-07T01:49:22;12.80;99.90
49855;DHT22;35752;52.164;21.244;2022-08-07T01:51:49;12.70;99.90
49855;DHT22;35752;52.164;21.244;2022-08-07T01:54:18;12.70;99.90
49855;DHT22;35752;52.164;21.244;2022-08-07T01:56:47;12.60;99.90
49855;DHT22;35752;52.164;21.244;2022-08-07T02:01:52;12.60;99.90
49855;DHT22;35752;52.164;21.244;2022-08-07T02:04:36;12.60;99.90
49855;DHT22;35752;52.164;21.244;2022-08-07T02:07:04;12.50;99.90
49855;DHT22;35752;52.164;21.244;2022-08-07T02:09:31;12.50;99.90
49855;DHT22;35752;52.164;21.244;2022-08-07T02:11:58;12.40;99.90
49855;DHT22;35752;52.164;21.244;2022-08-07T02:14:46;12.40;99.90
49855;DHT22;35752;52.164;21.244;2022-08-07T02:17:14;12.40;99.90
49855;DHT22;35752;52.164;21.244;2022-08-07T02:19:46;12.30;99.90
49855;DHT22;35752;52.164;21.244;2022-08-07T02:22:12;12.20;99.90
49855;DHT22;35752;52.164;21.244;2022-08-07T02:24:41;12.20;99.90
49855;DHT22;35752;52.164;21.244;2022-08-07T02:27:07;12.20;99.90
49855;DHT22;35752;52.164;21.244;2022-08-07T02:29:34;12.10;99.90
49855;DHT22;35752;52.164;21.244;2022-08-07T02:32:01;12.10;99.90
49855;DHT22;35752;52.164;21.244;2022-08-07T02:34:29;12.10;99.90
49855;DHT22;35752;52.164;21.244;2022-08-07T02:36:56;12.10;99.90
49855;DHT22;35752;52.164;21.244;2022-08-07T02:39:23;12.00;99.90
49855;DHT22;35752;52.164;21.244;2022-08-07T02:41:51;11.90;99.90
49855;DHT22;35752;52.164;21.244;2022-08-07T02:44:17;11.90;99.90
49855;DHT22;35752;52.164;21.244;2022-08-07T02:46:45;11.90;99.90
49855;DHT22;35752;52.164;21.244;2022-08-07T02:49:15;11.90;99.90
49855;DHT22;35752;52.164;21.244;2022-08-07T02:51:42;11.80;99.90
49855;DHT22;35752;52.164;21.244;2022-08-07T02:54:10;11.80;99.90
49855;DHT22;35752;52.164;21.244;2022-08-07T02:56:38;11.80;99.90
49855;DHT22;35752;52.164;21.244;2022-08-07T02:59:09;11.80;99.90
49855;DHT22;35752;52.164;21.244;2022-08-07T03:01:40;11.80;99.90
49855;DHT22;35752;52.164;21.244;2022-08-07T03:04:08;11.70;99.90
49855;DHT22;35752;52.164;21.244;2022-08-07T03:06:35;11.60;99.90
49855;DHT22;35752;52.164;21.244;2022-08-07T03:09:05;11.60;99.90
49855;DHT22;35752;52.164;21.244;2022-08-07T03:11:33;11.60;99.90
49855;DHT22;35752;52.164;21.244;2022-08-07T03:14:01;11.60;99.90
49855;DHT22;35752;52.164;21.244;2022-08-07T03:16:28;11.60;99.90
49855;DHT22;35752;52.164;21.244;2022-08-07T03:18:55;11.50;99.90
49855;DHT22;35752;52.164;21.244;2022-08-07T03:21:22;11.50;99.90
49855;DHT22;35752;52.164;21.244;2022-08-07T03:23:49;11.60;99.90
49855;DHT22;35752;52.164;21.244;2022-08-07T03:26:18;11.60;99.90
49855;DHT22;35752;52.164;21.244;2022-08-07T03:28:47;11.50;99.90
49855;DHT22;35752;52.164;21.244;2022-08-07T03:31:13;11.50;99.90
49855;DHT22;35752;52.164;21.244;2022-08-07T03:34:01;11.50;99.90
49855;DHT22;35752;52.164;21.244;2022-08-07T03:36:28;11.50;99.90
49855;DHT22;35752;52.164;21.244;2022-08-07T03:38:59;11.50;99.90
49855;DHT22;35752;52.164;21.244;2022-08-07T03:41:26;11.40;99.90
49855;DHT22;35752;52.164;21.244;2022-08-07T03:43:53;11.40;99.90
49855;DHT22;35752;52.164;21.244;2022-08-07T03:46:19;11.40;99.90
49855;DHT22;35752;52.164;21.244;2022-08-07T03:48:46;11.40;99.90
49855;DHT22;35752;52.164;21.244;2022-08-07T03:51:12;11.40;99.90
49855;DHT22;35752;52.164;21.244;2022-08-07T03:53:38;11.40;99.90
49855;DHT22;35752;52.164;21.244;2022-08-07T03:56:04;11.50;99.90
49855;DHT22;35752;52.164;21.244;2022-08-07T03:58:31;11.50;99.90
49855;DHT22;35752;52.164;21.244;2022-08-07T04:00:58;11.60;99.90
49855;DHT22;35752;52.164;21.244;2022-08-07T04:03:24;11.60;99.90
49855;DHT22;35752;52.164;21.244;2022-08-07T04:05:50;11.70;99.90
49855;DHT22;35752;52.164;21.244;2022-08-07T04:08:16;11.70;99.90
49855;DHT22;35752;52.164;21.244;2022-08-07T04:10:43;11.80;99.90
49855;DHT22;35752;52.164;21.244;2022-08-07T04:13:12;11.90;99.90
49855;DHT22;35752;52.164;21.244;2022-08-07T04:15:38;12.00;99.90
49855;DHT22;35752;52.164;21.244;2022-08-07T04:18:04;12.20;99.90
49855;DHT22;35752;52.164;21.244;2022-08-07T04:20:30;12.90;99.90
49855;DHT22;35752;52.164;21.244;2022-08-07T04:22:57;13.90;99.90
49855;DHT22;35752;52.164;21.244;2022-08-07T04:25:23;14.90;99.90
49855;DHT22;35752;52.164;21.244;2022-08-07T04:27:49;15.70;99.90
49855;DHT22;35752;52.164;21.244;2022-08-07T04:30:15;16.50;99.90
49855;DHT22;35752;52.164;21.244;2022-08-07T04:32:41;17.20;99.90
49855;DHT22;35752;52.164;21.244;2022-08-07T04:35:08;17.80;99.90
49855;DHT22;35752;52.164;21.244;2022-08-07T04:37:34;18.10;99.90
49855;DHT22;35752;52.164;21.244;2022-08-07T04:40:01;18.00;99.90
49855;DHT22;35752;52.164;21.244;2022-08-07T04:42:27;17.30;99.90
49855;DHT22;35752;52.164;21.244;2022-08-07T04:44:59;16.80;99.90
49855;DHT22;35752;52.164;21.244;2022-08-07T04:47:40;16.30;99.90
49855;DHT22;35752;52.164;21.244;2022-08-07T04:50:13;15.80;99.90
49855;DHT22;35752;52.164;21.244;2022-08-07T04:52:49;15.50;99.90
49855;DHT22;35752;52.164;21.244;2022-08-07T04:55:27;15.30;99.90
49855;DHT22;35752;52.164;21.244;2022-08-07T04:58:15;15.00;99.90
49855;DHT22;35752;52.164;21.244;2022-08-07T05:00:52;14.90;99.90
49855;DHT22;35752;52.164;21.244;2022-08-07T05:03:45;14.90;99.90
49855;DHT22;35752;52.164;21.244;2022-08-07T05:06:43;14.80;99.90
49855;DHT22;35752;52.164;21.244;2022-08-07T05:09:21;14.80;99.90
49855;DHT22;35752;52.164;21.244;2022-08-07T05:11:51;14.80;99.90
49855;DHT22;35752;52.164;21.244;2022-08-07T05:14:35;14.90;99.90
49855;DHT22;35752;52.164;21.244;2022-08-07T05:17:02;14.90;99.90
49855;DHT22;35752;52.164;21.244;2022-08-07T05:19:35;15.00;99.90
49855;DHT22;35752;52.164;21.244;2022-08-07T05:22:03;15.10;99.90
49855;DHT22;35752;52.164;21.244;2022-08-07T05:24:30;15.20;99.90
49855;DHT22;35752;52.164;21.244;2022-08-07T05:26:57;15.20;99.90
49855;DHT22;35752;52.164;21.244;2022-08-07T05:29:26;15.30;99.90
49855;DHT22;35752;52.164;21.244;2022-08-07T05:31:52;15.40;99.90
49855;DHT22;35752;52.164;21.244;2022-08-07T05:34:19;15.40;99.90
49855;DHT22;35752;52.164;21.244;2022-08-07T05:36:49;15.50;99.90
49855;DHT22;35752;52.164;21.244;2022-08-07T05:39:16;15.60;99.90
49855;DHT22;35752;52.164;21.244;2022-08-07T05:41:43;15.70;99.90
49855;DHT22;35752;52.164;21.244;2022-08-07T05:44:12;15.80;99.90
49855;DHT22;35752;52.164;21.244;2022-08-07T05:46:38;15.90;99.90
49855;DHT22;35752;52.164;21.244;2022-08-07T05:49:07;16.00;99.90
49855;DHT22;35752;52.164;21.244;2022-08-07T05:51:33;16.10;99.90
49855;DHT22;35752;52.164;21.244;2022-08-07T05:54:00;16.20;99.90
49855;DHT22;35752;52.164;21.244;2022-08-07T05:56:27;16.20;99.90
49855;DHT22;35752;52.164;21.244;2022-08-07T05:58:53;16.30;99.90
49855;DHT22;35752;52.164;21.244;2022-08-07T06:01:21;16.40;99.90
49855;DHT22;35752;52.164;21.244;2022-08-07T06:03:52;16.40;99.90
49855;DHT22;35752;52.164;21.244;2022-08-07T06:06:18;16.50;99.90
49855;DHT22;35752;52.164;21.244;2022-08-07T06:08:45;16.60;99.90
49855;DHT22;35752;52.164;21.244;2022-08-07T06:11:12;16.60;99.90
49855;DHT22;35752;52.164;21.244;2022-08-07T06:13:39;16.60;99.90
49855;DHT22;35752;52.164;21.244;2022-08-07T06:16:08;16.70;99.90
49855;DHT22;35752;52.164;21.244;2022-08-07T06:18:34;16.70;99.90
49855;DHT22;35752;52.164;21.244;2022-08-07T06:21:01;16.80;99.90
49855;DHT22;35752;52.164;21.244;2022-08-07T06:23:27;16.90;99.90
49855;DHT22;35752;52.164;21.244;2022-08-07T06:25:54;17.10;99.90
49855;DHT22;35752;52.164;21.244;2022-08-07T06:28:20;17.10;99.90
49855;DHT22;35752;52.164;21.244;2022-08-07T06:30:46;17.20;99.90
49855;DHT22;35752;52.164;21.244;2022-08-07T06:33:12;17.20;99.90
49855;DHT22;35752;52.164;21.244;2022-08-07T06:35:37;17.30;99.90
49855;DHT22;35752;52.164;21.244;2022-08-07T06:38:05;17.40;99.90
49855;DHT22;35752;52.164;21.244;2022-08-07T06:40:38;17.50;99.90
49855;DHT22;35752;52.164;21.244;2022-08-07T06:43:08;17.60;99.90
49855;DHT22;35752;52.164;21.244;2022-08-07T06:45:34;17.60;99.90
49855;DHT22;35752;52.164;21.244;2022-08-07T06:48:00;17.60;99.90
49855;DHT22;35752;52.164;21.244;2022-08-07T06:50:27;17.70;99.90
49855;DHT22;35752;52.164;21.244;2022-08-07T06:52:54;17.70;99.90
49855;DHT22;35752;52.164;21.244;2022-08-07T06:55:24;17.70;99.90
49855;DHT22;35752;52.164;21.244;2022-08-07T06:57:51;17.60;99.90
49855;DHT22;35752;52.164;21.244;2022-08-07T07:00:18;17.70;99.90
49855;DHT22;35752;52.164;21.244;2022-08-07T07:02:46;17.70;99.90
49855;DHT22;35752;52.164;21.244;2022-08-07T07:05:12;17.80;99.90
49855;DHT22;35752;52.164;21.244;2022-08-07T07:07:39;17.80;99.90
49855;DHT22;35752;52.164;21.244;2022-08-07T07:10:05;17.90;99.90
49855;DHT22;35752;52.164;21.244;2022-08-07T07:12:50;17.90;99.90
49855;DHT22;35752;52.164;21.244;2022-08-07T07:15:20;18.10;99.90
49855;DHT22;35752;52.164;21.244;2022-08-07T07:18:00;18.10;99.90
49855;DHT22;35752;52.164;21.244;2022-08-07T07:20:34;18.10;99.90
49855;DHT22;35752;52.164;21.244;2022-08-07T07:23:01;18.00;99.90
49855;DHT22;35752;52.164;21.244;2022-08-07T07:25:28;18.00;99.90
49855;DHT22;35752;52.164;21.244;2022-08-07T07:28:00;18.10;99.90
49855;DHT22;35752;52.164;21.244;2022-08-07T07:30:31;18.10;99.90
49855;DHT22;35752;52.164;21.244;2022-08-07T07:32:59;18.20;99.90
49855;DHT22;35752;52.164;21.244;2022-08-07T07:35:25;18.10;99.90
49855;DHT22;35752;52.164;21.244;2022-08-07T07:37:53;18.10;99.90
49855;DHT22;35752;52.164;21.244;2022-08-07T07:40:20;18.30;99.90
49855;DHT22;35752;52.164;21.244;2022-08-07T07:42:51;18.40;99.90
49855;DHT22;35752;52.164;21.244;2022-08-07T07:45:17;18.40;99.90
49855;DHT22;35752;52.164;21.244;2022-08-07T07:47:44;18.30;99.90
49855;DHT22;35752;52.164;21.244;2022-08-07T07:50:12;18.30;99.90
49855;DHT22;35752;52.164;21.244;2022-08-07T07:52:40;18.20;99.90
49855;DHT22;35752;52.164;21.244;2022-08-07T07:55:08;18.10;99.90
49855;DHT22;35752;52.164;21.244;2022-08-07T07:57:34;18.20;99.90
49855;DHT22;35752;52.164;21.244;2022-08-07T08:00:03;18.30;99.90
49855;DHT22;35752;52.164;21.244;2022-08-07T08:02:31;18.20;99.90
49855;DHT22;35752;52.164;21.244;2022-08-07T08:05:02;18.10;99.90
49855;DHT22;35752;52.164;21.244;2022-08-07T08:07:28;18.10;99.90
49855;DHT22;35752;52.164;21.244;2022-08-07T08:09:56;18.30;99.90
49855;DHT22;35752;52.164;21.244;2022-08-07T08:12:23;18.50;99.90
49855;DHT22;35752;52.164;21.244;2022-08-07T08:14:49;18.60;99.90
49855;DHT22;35752;52.164;21.244;2022-08-07T08:17:15;18.70;99.90
49855;DHT22;35752;52.164;21.244;2022-08-07T08:19:42;18.80;99.90
49855;DHT22;35752;52.164;21.244;2022-08-07T08:22:10;18.80;99.90
49855;DHT22;35752;52.164;21.244;2022-08-07T08:24:55;18.70;99.90
49855;DHT22;35752;52.164;21.244;2022-08-07T08:27:41;18.60;99.90
49855;DHT22;35752;52.164;21.244;2022-08-07T08:30:10;18.70;99.90
49855;DHT22;35752;52.164;21.244;2022-08-07T08:32:40;18.80;99.90
49855;DHT22;35752;52.164;21.244;2022-08-07T08:35:09;18.90;99.90
49855;DHT22;35752;52.164;21.244;2022-08-07T08:37:37;19.10;99.90
49855;DHT22;35752;52.164;21.244;2022-08-07T08:40:17;19.20;99.90
49855;DHT22;35752;52.164;21.244;2022-08-07T08:43:20;19.20;99.90
49855;DHT22;35752;52.164;21.244;2022-08-07T08:51:06;18.90;99.90
49855;DHT22;35752;52.164;21.244;2022-08-07T08:53:43;18.90;99.90
49855;DHT22;35752;52.164;21.244;2022-08-07T08:56:14;18.80;99.90
49855;DHT22;35752;52.164;21.244;2022-08-07T09:07:05;19.20;95.70
49855;DHT22;35752;52.164;21.244;2022-08-07T09:20:41;19.50;93.60
49855;DHT22;35752;52.164;21.244;2022-08-07T09:23:25;19.50;93.40
49855;DHT22;35752;52.164;21.244;2022-08-07T09:26:17;19.60;92.10
49855;DHT22;35752;52.164;21.244;2022-08-07T09:28:46;19.60;93.50
49855;DHT22;35752;52.164;21.244;2022-08-07T09:31:31;19.60;91.70
49855;DHT22;35752;52.164;21.244;2022-08-07T09:34:21;19.70;93.10
49855;DHT22;35752;52.164;21.244;2022-08-07T09:37:10;19.70;91.00
49855;DHT22;35752;52.164;21.244;2022-08-07T09:39:54;19.80;96.80
49855;DHT22;35752;52.164;21.244;2022-08-07T09:45:50;19.90;94.20
49855;DHT22;35752;52.164;21.244;2022-08-07T09:54:03;20.20;93.30
49855;DHT22;35752;52.164;21.244;2022-08-07T09:59:40;20.20;91.30
49855;DHT22;35752;52.164;21.244;2022-08-07T10:25:37;20.60;80.10
49855;DHT22;35752;52.164;21.244;2022-08-07T10:36:26;20.80;80.00
49855;DHT22;35752;52.164;21.244;2022-08-07T10:41:39;20.80;80.20
49855;DHT22;35752;52.164;21.244;2022-08-07T10:44:37;20.70;79.40
49855;DHT22;35752;52.164;21.244;2022-08-07T10:50:21;20.80;77.40
49855;DHT22;35752;52.164;21.244;2022-08-07T10:55:30;21.00;75.60
49855;DHT22;35752;52.164;21.244;2022-08-07T11:01:28;21.20;78.00
49855;DHT22;35752;52.164;21.244;2022-08-07T11:04:16;21.20;77.50
49855;DHT22;35752;52.164;21.244;2022-08-07T11:07:10;21.30;75.80
49855;DHT22;35752;52.164;21.244;2022-08-07T11:09:46;21.20;77.10
49855;DHT22;35752;52.164;21.244;2022-08-07T11:12:27;21.20;80.60
49855;DHT22;35752;52.164;21.244;2022-08-07T11:15:01;21.00;79.40
49855;DHT22;35752;52.164;21.244;2022-08-07T11:17:47;20.90;79.90
49855;DHT22;35752;52.164;21.244;2022-08-07T11:20:20;20.80;82.30
49855;DHT22;35752;52.164;21.244;2022-08-07T11:23:10;20.90;83.20
49855;DHT22;35752;52.164;21.244;2022-08-07T11:25:50;21.20;81.30
49855;DHT22;35752;52.164;21.244;2022-08-07T11:30:58;21.40;74.40
49855;DHT22;35752;52.164;21.244;2022-08-07T11:33:41;21.50;77.10
49855;DHT22;35752;52.164;21.244;2022-08-07T11:39:21;21.60;76.10
49855;DHT22;35752;52.164;21.244;2022-08-07T11:41:58;21.50;74.70
49855;DHT22;35752;52.164;21.244;2022-08-07T11:44:48;21.60;74.80
49855;DHT22;35752;52.164;21.244;2022-08-07T12:06:53;21.40;71.40
49855;DHT22;35752;52.164;21.244;2022-08-07T12:09:25;21.50;72.30
49855;DHT22;35752;52.164;21.244;2022-08-07T12:12:35;21.50;74.90
49855;DHT22;35752;52.164;21.244;2022-08-07T12:17:46;21.40;70.10
49855;DHT22;35752;52.164;21.244;2022-08-07T12:20:26;21.40;70.10
49855;DHT22;35752;52.164;21.244;2022-08-07T12:26:02;21.40;72.20
49855;DHT22;35752;52.164;21.244;2022-08-07T12:31:35;21.50;73.70
49855;DHT22;35752;52.164;21.244;2022-08-07T12:34:02;21.60;71.50
49855;DHT22;35752;52.164;21.244;2022-08-07T12:36:29;21.50;70.80
49855;DHT22;35752;52.164;21.244;2022-08-07T12:38:58;21.60;74.40
49855;DHT22;35752;52.164;21.244;2022-08-07T12:41:26;21.80;70.70
49855;DHT22;35752;52.164;21.244;2022-08-07T12:43:54;21.80;70.40
49855;DHT22;35752;52.164;21.244;2022-08-07T12:50:01;21.70;70.80
49855;DHT22;35752;52.164;21.244;2022-08-07T12:55:16;21.80;69.40
49855;DHT22;35752;52.164;21.244;2022-08-07T12:57:46;21.80;71.40
49855;DHT22;35752;52.164;21.244;2022-08-07T13:00:13;21.90;70.50
49855;DHT22;35752;52.164;21.244;2022-08-07T13:03:06;21.80;72.00
49855;DHT22;35752;52.164;21.244;2022-08-07T13:08:28;21.90;71.40
49855;DHT22;35752;52.164;21.244;2022-08-07T13:11:08;21.90;70.00
49855;DHT22;35752;52.164;21.244;2022-08-07T13:16:46;22.00;73.00
49855;DHT22;35752;52.164;21.244;2022-08-07T13:19:28;22.00;71.50
49855;DHT22;35752;52.164;21.244;2022-08-07T13:22:08;22.00;71.40
49855;DHT22;35752;52.164;21.244;2022-08-07T13:24:49;22.10;70.10
49855;DHT22;35752;52.164;21.244;2022-08-07T13:30:09;22.30;71.80
49855;DHT22;35752;52.164;21.244;2022-08-07T13:35:31;22.40;69.70
49855;DHT22;35752;52.164;21.244;2022-08-07T13:38:16;22.50;69.30
49855;DHT22;35752;52.164;21.244;2022-08-07T13:41:05;22.50;71.90
49855;DHT22;35752;52.164;21.244;2022-08-07T13:43:44;22.50;71.60
49855;DHT22;35752;52.164;21.244;2022-08-07T13:46:13;22.50;71.20
49855;DHT22;35752;52.164;21.244;2022-08-07T13:48:44;22.50;70.90
49855;DHT22;35752;52.164;21.244;2022-08-07T13:51:12;22.50;71.00
49855;DHT22;35752;52.164;21.244;2022-08-07T13:53:40;22.60;69.40
49855;DHT22;35752;52.164;21.244;2022-08-07T13:56:09;22.50;69.70
49855;DHT22;35752;52.164;21.244;2022-08-07T13:58:40;22.40;70.20
49855;DHT22;35752;52.164;21.244;2022-08-07T14:01:28;22.40;70.70
49855;DHT22;35752;52.164;21.244;2022-08-07T14:03:55;22.40;69.80
49855;DHT22;35752;52.164;21.244;2022-08-07T14:06:22;22.30;71.30
49855;DHT22;35752;52.164;21.244;2022-08-07T14:08:56;22.20;71.40
49855;DHT22;35752;52.164;21.244;2022-08-07T14:11:27;22.20;71.40
49855;DHT22;35752;52.164;21.244;2022-08-07T14:13:56;22.20;72.30
49855;DHT22;35752;52.164;21.244;2022-08-07T14:16:33;22.30;71.60
49855;DHT22;35752;52.164;21.244;2022-08-07T14:19:02;22.30;71.50
49855;DHT22;35752;52.164;21.244;2022-08-07T14:21:33;22.30;71.20
49855;DHT22;35752;52.164;21.244;2022-08-07T14:24:03;22.30;71.90
49855;DHT22;35752;52.164;21.244;2022-08-07T14:26:43;22.40;73.10
49855;DHT22;35752;52.164;21.244;2022-08-07T14:29:17;22.40;70.50
49855;DHT22;35752;52.164;21.244;2022-08-07T14:31:46;22.40;70.80
49855;DHT22;35752;52.164;21.244;2022-08-07T14:34:15;22.40;70.90
49855;DHT22;35752;52.164;21.244;2022-08-07T14:36:42;22.50;70.10
49855;DHT22;35752;52.164;21.244;2022-08-07T14:39:09;22.40;70.00
49855;DHT22;35752;52.164;21.244;2022-08-07T14:41:35;22.30;70.60
49855;DHT22;35752;52.164;21.244;2022-08-07T14:44:08;22.30;72.10
49855;DHT22;35752;52.164;21.244;2022-08-07T14:46:36;22.20;72.40
49855;DHT22;35752;52.164;21.244;2022-08-07T14:49:03;22.30;74.60
49855;DHT22;35752;52.164;21.244;2022-08-07T14:51:31;22.20;71.10
49855;DHT22;35752;52.164;21.244;2022-08-07T14:53:59;22.20;72.10
49855;DHT22;35752;52.164;21.244;2022-08-07T14:56:28;22.20;72.30
49855;DHT22;35752;52.164;21.244;2022-08-07T14:59:01;22.20;72.60
49855;DHT22;35752;52.164;21.244;2022-08-07T15:01:33;22.20;74.70
49855;DHT22;35752;52.164;21.244;2022-08-07T15:04:04;22.20;73.60
49855;DHT22;35752;52.164;21.244;2022-08-07T15:06:32;22.20;75.30
49855;DHT22;35752;52.164;21.244;2022-08-07T15:09:08;22.30;74.60
49855;DHT22;35752;52.164;21.244;2022-08-07T15:11:51;22.30;72.60
49855;DHT22;35752;52.164;21.244;2022-08-07T15:14:23;22.20;72.80
49855;DHT22;35752;52.164;21.244;2022-08-07T15:16:56;22.20;71.70
49855;DHT22;35752;52.164;21.244;2022-08-07T15:19:27;22.10;72.30
49855;DHT22;35752;52.164;21.244;2022-08-07T15:21:56;22.00;70.40
49855;DHT22;35752;52.164;21.244;2022-08-07T15:24:46;21.90;71.60
49855;DHT22;35752;52.164;21.244;2022-08-07T15:27:19;21.90;71.80
49855;DHT22;35752;52.164;21.244;2022-08-07T15:29:50;21.80;69.80
49855;DHT22;35752;52.164;21.244;2022-08-07T15:32:17;21.80;71.80
49855;DHT22;35752;52.164;21.244;2022-08-07T15:34:50;21.80;71.60
49855;DHT22;35752;52.164;21.244;2022-08-07T15:37:22;21.90;74.10
49855;DHT22;35752;52.164;21.244;2022-08-07T15:39:53;21.90;72.70
49855;DHT22;35752;52.164;21.244;2022-08-07T15:42:55;21.90;73.30
49855;DHT22;35752;52.164;21.244;2022-08-07T15:47:54;21.90;73.20
49855;DHT22;35752;52.164;21.244;2022-08-07T15:50:26;22.00;72.50
49855;DHT22;35752;52.164;21.244;2022-08-07T15:52:58;22.00;74.50
49855;DHT22;35752;52.164;21.244;2022-08-07T15:55:25;22.10;75.30
49855;DHT22;35752;52.164;21.244;2022-08-07T15:57:52;22.10;76.10
49855;DHT22;35752;52.164;21.244;2022-08-07T16:00:20;22.10;74.50
49855;DHT22;35752;52.164;21.244;2022-08-07T16:02:48;22.10;74.30
49855;DHT22;35752;52.164;21.244;2022-08-07T16:05:19;22.00;73.90
49855;DHT22;35752;52.164;21.244;2022-08-07T16:07:50;22.10;73.90
49855;DHT22;35752;52.164;21.244;2022-08-07T16:10:20;22.10;75.40
49855;DHT22;35752;52.164;21.244;2022-08-07T16:12:52;22.10;75.10
49855;DHT22;35752;52.164;21.244;2022-08-07T16:21:08;22.10;74.90
49855;DHT22;35752;52.164;21.244;2022-08-07T16:29:52;22.20;75.30
49855;DHT22;35752;52.164;21.244;2022-08-07T16:32:31;22.10;75.90
49855;DHT22;35752;52.164;21.244;2022-08-07T16:41:09;22.00;76.80
49855;DHT22;35752;52.164;21.244;2022-08-07T16:54:39;24.30;73.10
49855;DHT22;35752;52.164;21.244;2022-08-07T17:07:51;27.10;62.80
49855;DHT22;35752;52.164;21.244;2022-08-07T17:21:14;25.10;66.90
49855;DHT22;35752;52.164;21.244;2022-08-07T17:24:02;24.40;66.60
49855;DHT22;35752;52.164;21.244;2022-08-07T17:29:27;23.40;71.70
49855;DHT22;35752;52.164;21.244;2022-08-07T17:35:12;22.50;80.30
49855;DHT22;35752;52.164;21.244;2022-08-07T17:37:53;22.10;83.80
49855;DHT22;35752;52.164;21.244;2022-08-07T17:40:27;21.80;90.80
49855;DHT22;35752;52.164;21.244;2022-08-07T17:43:02;21.50;95.90
49855;DHT22;35752;52.164;21.244;2022-08-07T17:45:36;21.20;99.90
49855;DHT22;35752;52.164;21.244;2022-08-07T17:48:19;21.00;99.90
49855;DHT22;35752;52.164;21.244;2022-08-07T17:58:41;20.20;99.90
49855;DHT22;35752;52.164;21.244;2022-08-07T18:09:34;19.40;99.90
49855;DHT22;35752;52.164;21.244;2022-08-07T18:14:49;19.00;99.90
49855;DHT22;35752;52.164;21.244;2022-08-07T18:17:48;19.00;99.90
49855;DHT22;35752;52.164;21.244;2022-08-07T18:20:27;18.80;99.90
49855;DHT22;35752;52.164;21.244;2022-08-07T18:23:00;18.60;99.90
49855;DHT22;35752;52.164;21.244;2022-08-07T18:25:31;18.50;99.90
49855;DHT22;35752;52.164;21.244;2022-08-07T18:28:14;18.40;99.90
49855;DHT22;35752;52.164;21.244;2022-08-07T18:36:15;18.00;99.90
49855;DHT22;35752;52.164;21.244;2022-08-07T18:47:37;17.50;99.90
49855;DHT22;35752;52.164;21.244;2022-08-07T18:50:32;17.40;99.90
49855;DHT22;35752;52.164;21.244;2022-08-07T18:53:48;17.40;99.90
49855;DHT22;35752;52.164;21.244;2022-08-07T18:56:43;17.30;99.90
49855;DHT22;35752;52.164;21.244;2022-08-07T18:59:13;17.20;99.90
49855;DHT22;35752;52.164;21.244;2022-08-07T19:05:05;17.00;99.90
49855;DHT22;35752;52.164;21.244;2022-08-07T19:07:46;16.90;99.90
49855;DHT22;35752;52.164;21.244;2022-08-07T19:10:21;16.90;99.90
49855;DHT22;35752;52.164;21.244;2022-08-07T19:13:22;16.80;99.90
49855;DHT22;35752;52.164;21.244;2022-08-07T19:18:48;16.60;99.90
49855;DHT22;35752;52.164;21.244;2022-08-07T19:21:46;16.60;99.90
49855;DHT22;35752;52.164;21.244;2022-08-07T19:24:23;16.50;99.90
49855;DHT22;35752;52.164;21.244;2022-08-07T19:26:52;16.40;99.90
49855;DHT22;35752;52.164;21.244;2022-08-07T19:29:22;16.30;99.90
49855;DHT22;35752;52.164;21.244;2022-08-07T19:31:53;16.20;99.90
49855;DHT22;35752;52.164;21.244;2022-08-07T19:34:23;16.20;99.90
49855;DHT22;35752;52.164;21.244;2022-08-07T19:36:51;16.10;99.90